Laurel Springs, New Jersey
Current Conditions -  °F | °C
As of 9:54 AM on Friday 24 Oct 2014 (Local Time) from KVAY Reporting Station
Overcast Overcast  
Wind Chill: 56°   Ceiling: 3700
Heat Index: 56°   Visibility: 10mi
Dew Point: 43°   Wind: 14mph
Humidity: 62%   Direction: 340°NNW
Pressure: 29.86"   Gusts: 25mph
Location:  39.8055°N, 74.9997°W
Report Text: KVAY 241354Z AUTO 34012G22KT 10SM OVC037 13/06 A2986 RMK AO2 PK WND 01027/1334 SLP112 T01330061
Loading
Personal Weather Stations






























Interactive Weather Map
Tropical Storm Tracking
New forecast layout! Learn more

10-Day Weather Forecast

Advertisements
Track Severe Weather on mobile